sensor_id;sensor_type;location;lat;lon;timestamp;P1;durP1;ratioP1;P2;durP2;ratioP2
19754;SDS011;10036;47.812;9.274;2023-04-25T00:00:47;7.13;;;4.22;;
19754;SDS011;10036;47.812;9.274;2023-04-25T00:03:15;8.13;;;4.25;;
19754;SDS011;10036;47.812;9.274;2023-04-25T00:05:44;4.95;;;4.13;;
19754;SDS011;10036;47.812;9.274;2023-04-25T00:08:11;5.40;;;4.15;;
19754;SDS011;10036;47.812;9.274;2023-04-25T00:10:38;7.82;;;4.95;;
19754;SDS011;10036;47.812;9.274;2023-04-25T00:13:05;6.82;;;4.30;;
19754;SDS011;10036;47.812;9.274;2023-04-25T00:18:21;7.20;;;4.72;;
19754;SDS011;10036;47.812;9.274;2023-04-25T00:20:48;3.92;;;3.53;;
19754;SDS011;10036;47.812;9.274;2023-04-25T00:23:15;8.32;;;3.55;;
19754;SDS011;10036;47.812;9.274;2023-04-25T00:25:43;6.00;;;3.50;;
19754;SDS011;10036;47.812;9.274;2023-04-25T00:28:10;4.07;;;3.35;;
19754;SDS011;10036;47.812;9.274;2023-04-25T00:30:37;6.82;;;3.67;;
19754;SDS011;10036;47.812;9.274;2023-04-25T00:33:06;4.40;;;3.13;;
19754;SDS011;10036;47.812;9.274;2023-04-25T00:35:33;6.13;;;3.50;;
19754;SDS011;10036;47.812;9.274;2023-04-25T00:38:00;3.42;;;2.55;;
19754;SDS011;10036;47.812;9.274;2023-04-25T00:40:27;4.72;;;2.67;;
19754;SDS011;10036;47.812;9.274;2023-04-25T00:42:54;3.47;;;2.58;;
19754;SDS011;10036;47.812;9.274;2023-04-25T00:45:21;6.93;;;4.60;;
19754;SDS011;10036;47.812;9.274;2023-04-25T00:47:53;27.02;;;11.25;;
19754;SDS011;10036;47.812;9.274;2023-04-25T00:50:22;5.43;;;3.30;;
19754;SDS011;10036;47.812;9.274;2023-04-25T00:52:49;3.88;;;2.78;;
19754;SDS011;10036;47.812;9.274;2023-04-25T00:55:17;2.40;;;2.20;;
19754;SDS011;10036;47.812;9.274;2023-04-25T00:57:44;3.80;;;2.50;;
19754;SDS011;10036;47.812;9.274;2023-04-25T01:00:12;3.03;;;2.17;;
19754;SDS011;10036;47.812;9.274;2023-04-25T01:02:40;3.00;;;2.22;;
19754;SDS011;10036;47.812;9.274;2023-04-25T01:05:07;4.57;;;2.30;;
19754;SDS011;10036;47.812;9.274;2023-04-25T01:07:36;2.60;;;2.38;;
19754;SDS011;10036;47.812;9.274;2023-04-25T01:10:03;5.18;;;2.20;;
19754;SDS011;10036;47.812;9.274;2023-04-25T01:12:31;2.83;;;2.20;;
19754;SDS011;10036;47.812;9.274;2023-04-25T01:14:58;9.20;;;6.45;;
19754;SDS011;10036;47.812;9.274;2023-04-25T01:17:25;13.40;;;8.75;;
19754;SDS011;10036;47.812;9.274;2023-04-25T01:19:52;7.57;;;5.03;;
19754;SDS011;10036;47.812;9.274;2023-04-25T01:22:20;4.43;;;2.80;;
19754;SDS011;10036;47.812;9.274;2023-04-25T01:27:33;5.05;;;2.38;;
19754;SDS011;10036;47.812;9.274;2023-04-25T01:30:01;2.67;;;2.47;;
19754;SDS011;10036;47.812;9.274;2023-04-25T01:32:29;2.20;;;2.10;;
19754;SDS011;10036;47.812;9.274;2023-04-25T01:35:03;3.60;;;2.38;;
19754;SDS011;10036;47.812;9.274;2023-04-25T01:37:35;4.28;;;2.55;;
19754;SDS011;10036;47.812;9.274;2023-04-25T01:40:02;2.60;;;2.38;;
19754;SDS011;10036;47.812;9.274;2023-04-25T01:42:31;2.30;;;2.10;;
19754;SDS011;10036;47.812;9.274;2023-04-25T01:44:58;2.95;;;2.10;;
19754;SDS011;10036;47.812;9.274;2023-04-25T01:47:25;2.65;;;2.42;;
19754;SDS011;10036;47.812;9.274;2023-04-25T01:49:51;3.80;;;2.90;;
19754;SDS011;10036;47.812;9.274;2023-04-25T01:52:18;3.92;;;2.40;;
19754;SDS011;10036;47.812;9.274;2023-04-25T01:54:47;4.45;;;2.88;;
19754;SDS011;10036;47.812;9.274;2023-04-25T01:57:15;3.72;;;2.75;;
19754;SDS011;10036;47.812;9.274;2023-04-25T01:59:42;4.03;;;2.50;;
19754;SDS011;10036;47.812;9.274;2023-04-25T02:02:09;4.93;;;2.58;;
19754;SDS011;10036;47.812;9.274;2023-04-25T02:04:36;3.70;;;2.50;;
19754;SDS011;10036;47.812;9.274;2023-04-25T02:07:03;3.50;;;2.55;;
19754;SDS011;10036;47.812;9.274;2023-04-25T02:09:30;2.88;;;2.45;;
19754;SDS011;10036;47.812;9.274;2023-04-25T02:11:58;3.90;;;2.10;;
19754;SDS011;10036;47.812;9.274;2023-04-25T02:14:26;2.80;;;2.35;;
19754;SDS011;10036;47.812;9.274;2023-04-25T02:16:53;4.93;;;2.90;;
19754;SDS011;10036;47.812;9.274;2023-04-25T02:19:20;5.32;;;2.58;;
19754;SDS011;10036;47.812;9.274;2023-04-25T02:21:47;2.80;;;2.50;;
19754;SDS011;10036;47.812;9.274;2023-04-25T02:24:14;3.53;;;2.55;;
19754;SDS011;10036;47.812;9.274;2023-04-25T02:26:41;4.03;;;2.63;;
19754;SDS011;10036;47.812;9.274;2023-04-25T02:29:09;4.53;;;2.42;;
19754;SDS011;10036;47.812;9.274;2023-04-25T02:31:36;4.80;;;3.03;;
19754;SDS011;10036;47.812;9.274;2023-04-25T02:34:03;6.25;;;2.70;;
19754;SDS011;10036;47.812;9.274;2023-04-25T02:36:30;4.05;;;2.70;;
19754;SDS011;10036;47.812;9.274;2023-04-25T02:38:59;3.85;;;2.88;;
19754;SDS011;10036;47.812;9.274;2023-04-25T02:41:26;3.35;;;2.80;;
19754;SDS011;10036;47.812;9.274;2023-04-25T02:43:53;5.50;;;2.88;;
19754;SDS011;10036;47.812;9.274;2023-04-25T02:46:21;4.07;;;2.97;;
19754;SDS011;10036;47.812;9.274;2023-04-25T02:48:48;4.63;;;2.83;;
19754;SDS011;10036;47.812;9.274;2023-04-25T02:51:15;3.05;;;2.72;;
19754;SDS011;10036;47.812;9.274;2023-04-25T02:53:42;4.85;;;2.80;;
19754;SDS011;10036;47.812;9.274;2023-04-25T02:56:09;3.55;;;2.70;;
19754;SDS011;10036;47.812;9.274;2023-04-25T02:58:35;4.85;;;2.90;;
19754;SDS011;10036;47.812;9.274;2023-04-25T03:01:02;8.93;;;3.58;;
19754;SDS011;10036;47.812;9.274;2023-04-25T03:03:31;6.50;;;3.13;;
19754;SDS011;10036;47.812;9.274;2023-04-25T03:05:58;6.88;;;3.25;;
19754;SDS011;10036;47.812;9.274;2023-04-25T03:08:25;3.50;;;2.72;;
19754;SDS011;10036;47.812;9.274;2023-04-25T03:10:57;5.13;;;3.10;;
19754;SDS011;10036;47.812;9.274;2023-04-25T03:13:24;4.25;;;3.40;;
19754;SDS011;10036;47.812;9.274;2023-04-25T03:15:52;3.20;;;2.85;;
19754;SDS011;10036;47.812;9.274;2023-04-25T03:18:19;6.10;;;3.08;;
19754;SDS011;10036;47.812;9.274;2023-04-25T03:20:47;7.47;;;3.17;;
19754;SDS011;10036;47.812;9.274;2023-04-25T03:23:14;5.15;;;3.17;;
19754;SDS011;10036;47.812;9.274;2023-04-25T03:25:41;4.78;;;3.08;;
19754;SDS011;10036;47.812;9.274;2023-04-25T03:28:08;5.10;;;3.47;;
19754;SDS011;10036;47.812;9.274;2023-04-25T03:30:35;4.25;;;3.15;;
19754;SDS011;10036;47.812;9.274;2023-04-25T03:33:02;6.75;;;3.50;;
19754;SDS011;10036;47.812;9.274;2023-04-25T03:35:28;4.47;;;3.38;;
19754;SDS011;10036;47.812;9.274;2023-04-25T03:37:57;3.65;;;3.10;;
19754;SDS011;10036;47.812;9.274;2023-04-25T03:40:24;7.10;;;3.85;;
19754;SDS011;10036;47.812;9.274;2023-04-25T03:42:51;5.15;;;4.22;;
19754;SDS011;10036;47.812;9.274;2023-04-25T03:45:18;5.00;;;3.33;;
19754;SDS011;10036;47.812;9.274;2023-04-25T03:47:45;3.80;;;3.30;;
19754;SDS011;10036;47.812;9.274;2023-04-25T03:50:12;6.20;;;3.50;;
19754;SDS011;10036;47.812;9.274;2023-04-25T03:52:38;3.67;;;3.15;;
19754;SDS011;10036;47.812;9.274;2023-04-25T03:55:07;6.03;;;3.88;;
19754;SDS011;10036;47.812;9.274;2023-04-25T03:57:34;6.00;;;3.20;;
19754;SDS011;10036;47.812;9.274;2023-04-25T04:00:02;6.82;;;3.53;;
19754;SDS011;10036;47.812;9.274;2023-04-25T04:02:30;5.55;;;3.40;;
19754;SDS011;10036;47.812;9.274;2023-04-25T04:04:58;8.93;;;3.38;;
19754;SDS011;10036;47.812;9.274;2023-04-25T04:07:24;5.90;;;3.70;;
19754;SDS011;10036;47.812;9.274;2023-04-25T04:09:51;6.82;;;4.32;;
19754;SDS011;10036;47.812;9.274;2023-04-25T04:12:20;7.80;;;4.28;;
19754;SDS011;10036;47.812;9.274;2023-04-25T04:14:46;16.17;;;8.68;;
19754;SDS011;10036;47.812;9.274;2023-04-25T04:17:13;18.55;;;8.82;;
19754;SDS011;10036;47.812;9.274;2023-04-25T04:19:40;8.90;;;5.00;;
19754;SDS011;10036;47.812;9.274;2023-04-25T04:22:07;7.43;;;4.07;;
19754;SDS011;10036;47.812;9.274;2023-04-25T04:24:34;5.10;;;3.53;;
19754;SDS011;10036;47.812;9.274;2023-04-25T04:27:01;6.53;;;3.65;;
19754;SDS011;10036;47.812;9.274;2023-04-25T04:29:30;6.57;;;4.05;;
19754;SDS011;10036;47.812;9.274;2023-04-25T04:31:57;6.70;;;3.85;;
19754;SDS011;10036;47.812;9.274;2023-04-25T04:34:26;6.65;;;4.40;;
19754;SDS011;10036;47.812;9.274;2023-04-25T04:36:52;4.75;;;4.10;;
19754;SDS011;10036;47.812;9.274;2023-04-25T04:39:20;7.57;;;3.88;;
19754;SDS011;10036;47.812;9.274;2023-04-25T04:41:47;6.38;;;3.60;;
19754;SDS011;10036;47.812;9.274;2023-04-25T04:44:14;5.43;;;3.60;;
19754;SDS011;10036;47.812;9.274;2023-04-25T04:46:42;4.10;;;2.90;;
19754;SDS011;10036;47.812;9.274;2023-04-25T04:49:09;4.88;;;3.58;;
19754;SDS011;10036;47.812;9.274;2023-04-25T04:51:37;4.90;;;3.33;;
19754;SDS011;10036;47.812;9.274;2023-04-25T04:54:04;6.20;;;3.60;;
19754;SDS011;10036;47.812;9.274;2023-04-25T04:56:31;5.90;;;3.60;;
19754;SDS011;10036;47.812;9.274;2023-04-25T04:58:58;8.23;;;4.03;;
19754;SDS011;10036;47.812;9.274;2023-04-25T05:01:26;4.72;;;3.65;;
19754;SDS011;10036;47.812;9.274;2023-04-25T05:03:56;5.57;;;4.07;;
19754;SDS011;10036;47.812;9.274;2023-04-25T05:06:25;5.38;;;3.90;;
19754;SDS011;10036;47.812;9.274;2023-04-25T05:08:53;3.72;;;3.42;;
19754;SDS011;10036;47.812;9.274;2023-04-25T05:11:21;7.07;;;4.20;;
19754;SDS011;10036;47.812;9.274;2023-04-25T05:13:49;5.85;;;4.70;;
19754;SDS011;10036;47.812;9.274;2023-04-25T05:16:17;8.73;;;6.05;;
19754;SDS011;10036;47.812;9.274;2023-04-25T05:18:45;7.05;;;5.00;;
19754;SDS011;10036;47.812;9.274;2023-04-25T05:21:14;6.25;;;4.57;;
19754;SDS011;10036;47.812;9.274;2023-04-25T05:23:41;6.57;;;4.10;;
19754;SDS011;10036;47.812;9.274;2023-04-25T05:26:09;4.55;;;3.63;;
19754;SDS011;10036;47.812;9.274;2023-04-25T05:28:38;4.10;;;3.05;;
19754;SDS011;10036;47.812;9.274;2023-04-25T05:31:06;5.70;;;3.50;;
19754;SDS011;10036;47.812;9.274;2023-04-25T05:33:33;5.00;;;3.40;;
19754;SDS011;10036;47.812;9.274;2023-04-25T05:35:59;8.18;;;3.65;;
19754;SDS011;10036;47.812;9.274;2023-04-25T05:38:28;5.65;;;3.40;;
19754;SDS011;10036;47.812;9.274;2023-04-25T05:40:55;6.68;;;3.55;;
19754;SDS011;10036;47.812;9.274;2023-04-25T05:43:22;5.63;;;3.72;;
19754;SDS011;10036;47.812;9.274;2023-04-25T05:45:49;5.40;;;3.83;;
19754;SDS011;10036;47.812;9.274;2023-04-25T05:48:16;6.97;;;3.83;;
19754;SDS011;10036;47.812;9.274;2023-04-25T05:50:43;5.50;;;3.40;;
19754;SDS011;10036;47.812;9.274;2023-04-25T05:53:10;6.65;;;3.10;;
19754;SDS011;10036;47.812;9.274;2023-04-25T05:55:38;4.78;;;4.28;;
19754;SDS011;10036;47.812;9.274;2023-04-25T05:58:05;5.57;;;4.13;;
19754;SDS011;10036;47.812;9.274;2023-04-25T06:00:32;6.25;;;3.95;;
19754;SDS011;10036;47.812;9.274;2023-04-25T06:02:59;4.63;;;4.10;;
19754;SDS011;10036;47.812;9.274;2023-04-25T06:05:26;5.22;;;4.40;;
19754;SDS011;10036;47.812;9.274;2023-04-25T06:07:53;6.78;;;4.75;;
19754;SDS011;10036;47.812;9.274;2023-04-25T06:10:20;6.05;;;4.68;;
19754;SDS011;10036;47.812;9.274;2023-04-25T06:12:49;5.03;;;4.38;;
19754;SDS011;10036;47.812;9.274;2023-04-25T06:15:16;4.20;;;3.63;;
19754;SDS011;10036;47.812;9.274;2023-04-25T06:17:42;4.90;;;3.70;;
19754;SDS011;10036;47.812;9.274;2023-04-25T06:20:09;5.35;;;3.42;;
19754;SDS011;10036;47.812;9.274;2023-04-25T06:22:37;5.35;;;3.67;;
19754;SDS011;10036;47.812;9.274;2023-04-25T06:25:04;6.10;;;3.90;;
19754;SDS011;10036;47.812;9.274;2023-04-25T06:27:32;6.22;;;3.53;;
19754;SDS011;10036;47.812;9.274;2023-04-25T06:30:00;4.35;;;3.47;;
19754;SDS011;10036;47.812;9.274;2023-04-25T06:32:27;4.70;;;3.25;;
19754;SDS011;10036;47.812;9.274;2023-04-25T06:34:55;3.97;;;3.10;;
19754;SDS011;10036;47.812;9.274;2023-04-25T06:37:22;5.97;;;3.50;;
19754;SDS011;10036;47.812;9.274;2023-04-25T06:39:49;5.07;;;3.50;;
19754;SDS011;10036;47.812;9.274;2023-04-25T06:42:16;5.45;;;3.40;;
19754;SDS011;10036;47.812;9.274;2023-04-25T06:44:43;4.28;;;3.20;;
19754;SDS011;10036;47.812;9.274;2023-04-25T06:47:11;5.25;;;3.50;;
19754;SDS011;10036;47.812;9.274;2023-04-25T06:49:38;7.30;;;3.15;;
19754;SDS011;10036;47.812;9.274;2023-04-25T06:52:05;5.80;;;3.40;;
19754;SDS011;10036;47.812;9.274;2023-04-25T06:54:31;5.68;;;3.42;;
19754;SDS011;10036;47.812;9.274;2023-04-25T06:56:59;4.97;;;3.40;;
19754;SDS011;10036;47.812;9.274;2023-04-25T06:59:26;3.97;;;3.00;;
19754;SDS011;10036;47.812;9.274;2023-04-25T07:01:53;8.35;;;3.50;;
19754;SDS011;10036;47.812;9.274;2023-04-25T07:04:21;4.03;;;3.05;;
19754;SDS011;10036;47.812;9.274;2023-04-25T07:06:48;6.07;;;3.40;;
19754;SDS011;10036;47.812;9.274;2023-04-25T07:09:15;5.43;;;2.92;;
19754;SDS011;10036;47.812;9.274;2023-04-25T07:11:42;6.28;;;3.15;;
19754;SDS011;10036;47.812;9.274;2023-04-25T07:14:09;6.22;;;3.15;;
19754;SDS011;10036;47.812;9.274;2023-04-25T07:16:36;8.15;;;3.90;;
19754;SDS011;10036;47.812;9.274;2023-04-25T07:19:03;7.13;;;3.30;;
19754;SDS011;10036;47.812;9.274;2023-04-25T07:21:31;6.50;;;3.38;;
19754;SDS011;10036;47.812;9.274;2023-04-25T07:23:58;9.07;;;3.25;;
19754;SDS011;10036;47.812;9.274;2023-04-25T07:26:25;7.03;;;3.15;;
19754;SDS011;10036;47.812;9.274;2023-04-25T07:28:51;5.68;;;2.90;;
19754;SDS011;10036;47.812;9.274;2023-04-25T07:31:19;3.60;;;3.30;;
19754;SDS011;10036;47.812;9.274;2023-04-25T07:33:46;5.88;;;3.80;;
19754;SDS011;10036;47.812;9.274;2023-04-25T07:36:13;6.03;;;3.78;;
19754;SDS011;10036;47.812;9.274;2023-04-25T07:38:42;7.45;;;3.35;;
19754;SDS011;10036;47.812;9.274;2023-04-25T07:41:09;4.40;;;3.13;;
19754;SDS011;10036;47.812;9.274;2023-04-25T07:43:36;4.90;;;3.38;;
19754;SDS011;10036;47.812;9.274;2023-04-25T07:46:03;5.80;;;3.25;;
19754;SDS011;10036;47.812;9.274;2023-04-25T07:48:31;6.10;;;3.55;;
19754;SDS011;10036;47.812;9.274;2023-04-25T07:50:58;4.65;;;3.22;;
19754;SDS011;10036;47.812;9.274;2023-04-25T07:53:25;6.15;;;3.15;;
19754;SDS011;10036;47.812;9.274;2023-04-25T07:55:54;4.38;;;2.97;;
19754;SDS011;10036;47.812;9.274;2023-04-25T07:58:21;5.25;;;3.15;;
19754;SDS011;10036;47.812;9.274;2023-04-25T08:00:48;5.90;;;3.13;;
19754;SDS011;10036;47.812;9.274;2023-04-25T08:03:15;4.78;;;3.45;;
19754;SDS011;10036;47.812;9.274;2023-04-25T08:05:42;3.70;;;3.22;;
19754;SDS011;10036;47.812;9.274;2023-04-25T08:08:09;3.10;;;2.80;;
19754;SDS011;10036;47.812;9.274;2023-04-25T08:10:36;4.35;;;3.00;;
19754;SDS011;10036;47.812;9.274;2023-04-25T08:13:04;3.00;;;2.70;;
19754;SDS011;10036;47.812;9.274;2023-04-25T08:15:31;3.92;;;2.80;;
19754;SDS011;10036;47.812;9.274;2023-04-25T08:17:57;5.20;;;3.15;;
19754;SDS011;10036;47.812;9.274;2023-04-25T08:20:24;4.57;;;3.05;;
19754;SDS011;10036;47.812;9.274;2023-04-25T08:22:54;3.83;;;2.50;;
19754;SDS011;10036;47.812;9.274;2023-04-25T08:25:21;4.70;;;2.42;;
19754;SDS011;10036;47.812;9.274;2023-04-25T08:27:48;3.13;;;2.30;;
19754;SDS011;10036;47.812;9.274;2023-04-25T08:30:16;4.50;;;3.03;;
19754;SDS011;10036;47.812;9.274;2023-04-25T08:32:43;3.53;;;3.22;;
19754;SDS011;10036;47.812;9.274;2023-04-25T08:35:10;5.03;;;3.50;;
19754;SDS011;10036;47.812;9.274;2023-04-25T08:37:37;3.28;;;2.40;;
19754;SDS011;10036;47.812;9.274;2023-04-25T08:40:04;2.50;;;2.17;;
19754;SDS011;10036;47.812;9.274;2023-04-25T08:42:34;2.45;;;2.13;;
19754;SDS011;10036;47.812;9.274;2023-04-25T08:45:03;5.07;;;2.28;;
19754;SDS011;10036;47.812;9.274;2023-04-25T08:47:33;3.95;;;2.00;;
19754;SDS011;10036;47.812;9.274;2023-04-25T08:50:01;2.75;;;1.80;;
19754;SDS011;10036;47.812;9.274;2023-04-25T08:52:32;1.77;;;1.67;;
19754;SDS011;10036;47.812;9.274;2023-04-25T08:55:02;2.80;;;1.55;;
19754;SDS011;10036;47.812;9.274;2023-04-25T08:57:30;2.53;;;1.60;;
19754;SDS011;10036;47.812;9.274;2023-04-25T08:59:57;2.60;;;1.70;;
19754;SDS011;10036;47.812;9.274;2023-04-25T09:02:26;1.60;;;1.50;;
19754;SDS011;10036;47.812;9.274;2023-04-25T09:04:55;1.48;;;1.38;;
19754;SDS011;10036;47.812;9.274;2023-04-25T09:07:22;1.70;;;1.60;;
19754;SDS011;10036;47.812;9.274;2023-04-25T09:09:50;2.83;;;1.50;;
19754;SDS011;10036;47.812;9.274;2023-04-25T09:12:18;1.98;;;1.52;;
19754;SDS011;10036;47.812;9.274;2023-04-25T09:15:00;1.70;;;1.60;;
19754;SDS011;10036;47.812;9.274;2023-04-25T09:17:30;2.03;;;1.92;;
19754;SDS011;10036;47.812;9.274;2023-04-25T09:20:06;1.88;;;1.77;;
19754;SDS011;10036;47.812;9.274;2023-04-25T09:22:34;1.73;;;1.50;;
19754;SDS011;10036;47.812;9.274;2023-04-25T09:25:02;1.92;;;1.63;;
19754;SDS011;10036;47.812;9.274;2023-04-25T09:27:31;1.55;;;1.45;;
19754;SDS011;10036;47.812;9.274;2023-04-25T09:29:59;1.80;;;1.70;;
19754;SDS011;10036;47.812;9.274;2023-04-25T09:32:26;3.42;;;2.00;;
19754;SDS011;10036;47.812;9.274;2023-04-25T09:34:54;2.35;;;2.22;;
19754;SDS011;10036;47.812;9.274;2023-04-25T09:37:24;2.95;;;2.75;;
19754;SDS011;10036;47.812;9.274;2023-04-25T09:39:53;2.78;;;2.58;;
19754;SDS011;10036;47.812;9.274;2023-04-25T09:42:21;3.60;;;2.28;;
19754;SDS011;10036;47.812;9.274;2023-04-25T09:44:51;3.20;;;2.65;;
19754;SDS011;10036;47.812;9.274;2023-04-25T09:47:19;2.65;;;2.35;;
19754;SDS011;10036;47.812;9.274;2023-04-25T09:49:48;2.53;;;2.33;;
19754;SDS011;10036;47.812;9.274;2023-04-25T09:52:17;2.55;;;2.00;;
19754;SDS011;10036;47.812;9.274;2023-04-25T09:54:47;2.22;;;2.03;;
19754;SDS011;10036;47.812;9.274;2023-04-25T09:57:14;2.03;;;1.92;;
19754;SDS011;10036;47.812;9.274;2023-04-25T09:59:43;2.72;;;1.95;;
19754;SDS011;10036;47.812;9.274;2023-04-25T10:02:11;2.30;;;2.10;;
19754;SDS011;10036;47.812;9.274;2023-04-25T10:04:39;2.28;;;2.05;;
19754;SDS011;10036;47.812;9.274;2023-04-25T10:07:07;3.00;;;2.13;;
19754;SDS011;10036;47.812;9.274;2023-04-25T10:09:36;2.42;;;2.22;;
19754;SDS011;10036;47.812;9.274;2023-04-25T10:12:07;2.42;;;2.22;;
19754;SDS011;10036;47.812;9.274;2023-04-25T10:14:34;1.95;;;1.77;;
19754;SDS011;10036;47.812;9.274;2023-04-25T10:17:02;2.42;;;1.98;;
19754;SDS011;10036;47.812;9.274;2023-04-25T10:19:29;2.15;;;1.95;;
19754;SDS011;10036;47.812;9.274;2023-04-25T10:21:58;4.45;;;1.90;;
19754;SDS011;10036;47.812;9.274;2023-04-25T10:24:33;1.70;;;1.60;;
19754;SDS011;10036;47.812;9.274;2023-04-25T10:27:01;1.50;;;1.40;;
19754;SDS011;10036;47.812;9.274;2023-04-25T10:29:30;1.60;;;1.40;;
19754;SDS011;10036;47.812;9.274;2023-04-25T10:31:57;1.67;;;1.58;;
19754;SDS011;10036;47.812;9.274;2023-04-25T10:34:24;3.10;;;1.98;;
19754;SDS011;10036;47.812;9.274;2023-04-25T10:37:04;1.25;;;1.25;;
19754;SDS011;10036;47.812;9.274;2023-04-25T10:39:34;1.70;;;1.60;;
19754;SDS011;10036;47.812;9.274;2023-04-25T10:42:02;1.30;;;1.30;;
19754;SDS011;10036;47.812;9.274;2023-04-25T10:44:31;1.40;;;1.30;;
19754;SDS011;10036;47.812;9.274;2023-04-25T10:46:58;1.23;;;1.23;;
19754;SDS011;10036;47.812;9.274;2023-04-25T10:49:32;2.03;;;1.27;;
19754;SDS011;10036;47.812;9.274;2023-04-25T10:52:13;1.00;;;1.00;;
19754;SDS011;10036;47.812;9.274;2023-04-25T10:54:42;1.40;;;1.30;;
19754;SDS011;10036;47.812;9.274;2023-04-25T10:57:28;1.45;;;1.35;;
19754;SDS011;10036;47.812;9.274;2023-04-25T10:59:59;1.45;;;1.30;;
19754;SDS011;10036;47.812;9.274;2023-04-25T11:02:30;1.10;;;1.10;;
19754;SDS011;10036;47.812;9.274;2023-04-25T11:04:57;1.10;;;1.10;;
19754;SDS011;10036;47.812;9.274;2023-04-25T11:07:26;1.38;;;1.27;;
19754;SDS011;10036;47.812;9.274;2023-04-25T11:10:01;1.50;;;1.40;;
19754;SDS011;10036;47.812;9.274;2023-04-25T11:12:29;1.00;;;1.00;;
19754;SDS011;10036;47.812;9.274;2023-04-25T11:15:02;1.00;;;1.00;;
19754;SDS011;10036;47.812;9.274;2023-04-25T11:17:30;1.38;;;1.25;;
19754;SDS011;10036;47.812;9.274;2023-04-25T11:19:58;1.77;;;1.10;;
19754;SDS011;10036;47.812;9.274;2023-04-25T11:22:26;1.13;;;1.08;;
19754;SDS011;10036;47.812;9.274;2023-04-25T11:24:54;2.30;;;1.55;;
19754;SDS011;10036;47.812;9.274;2023-04-25T11:27:21;1.58;;;1.38;;
19754;SDS011;10036;47.812;9.274;2023-04-25T11:29:49;3.53;;;1.40;;
19754;SDS011;10036;47.812;9.274;2023-04-25T11:32:18;1.90;;;1.38;;
19754;SDS011;10036;47.812;9.274;2023-04-25T11:34:46;2.22;;;1.63;;
19754;SDS011;10036;47.812;9.274;2023-04-25T11:37:13;2.42;;;1.85;;
19754;SDS011;10036;47.812;9.274;2023-04-25T11:39:44;2.22;;;1.58;;
19754;SDS011;10036;47.812;9.274;2023-04-25T11:42:12;0.82;;;0.82;;
19754;SDS011;10036;47.812;9.274;2023-04-25T11:44:39;1.27;;;0.85;;
19754;SDS011;10036;47.812;9.274;2023-04-25T11:47:06;1.00;;;1.00;;
19754;SDS011;10036;47.812;9.274;2023-04-25T11:49:35;1.10;;;1.10;;
19754;SDS011;10036;47.812;9.274;2023-04-25T11:52:01;1.85;;;0.95;;
19754;SDS011;10036;47.812;9.274;2023-04-25T11:54:28;0.82;;;0.82;;
19754;SDS011;10036;47.812;9.274;2023-04-25T11:56:56;1.08;;;1.08;;
19754;SDS011;10036;47.812;9.274;2023-04-25T11:59:23;0.93;;;0.90;;
19754;SDS011;10036;47.812;9.274;2023-04-25T12:01:51;1.48;;;1.30;;
19754;SDS011;10036;47.812;9.274;2023-04-25T12:04:19;2.97;;;1.20;;
19754;SDS011;10036;47.812;9.274;2023-04-25T12:06:48;1.20;;;1.05;;
19754;SDS011;10036;47.812;9.274;2023-04-25T12:09:17;1.48;;;0.80;;
19754;SDS011;10036;47.812;9.274;2023-04-25T12:11:46;1.33;;;0.98;;
19754;SDS011;10036;47.812;9.274;2023-04-25T12:14:20;1.00;;;1.00;;
19754;SDS011;10036;47.812;9.274;2023-04-25T12:16:49;1.65;;;1.10;;
19754;SDS011;10036;47.812;9.274;2023-04-25T12:19:17;1.30;;;1.20;;
19754;SDS011;10036;47.812;9.274;2023-04-25T12:21:45;3.38;;;1.30;;
19754;SDS011;10036;47.812;9.274;2023-04-25T12:24:14;1.00;;;1.00;;
19754;SDS011;10036;47.812;9.274;2023-04-25T12:26:48;1.75;;;1.35;;
19754;SDS011;10036;47.812;9.274;2023-04-25T12:29:20;1.85;;;1.00;;
19754;SDS011;10036;47.812;9.274;2023-04-25T12:31:48;0.80;;;0.80;;
19754;SDS011;10036;47.812;9.274;2023-04-25T12:34:16;0.80;;;0.80;;
19754;SDS011;10036;47.812;9.274;2023-04-25T12:36:43;2.15;;;0.90;;
19754;SDS011;10036;47.812;9.274;2023-04-25T12:39:15;1.10;;;0.95;;
19754;SDS011;10036;47.812;9.274;2023-04-25T12:41:42;1.63;;;1.00;;
19754;SDS011;10036;47.812;9.274;2023-04-25T12:44:10;0.85;;;0.85;;
19754;SDS011;10036;47.812;9.274;2023-04-25T12:46:37;0.80;;;0.80;;
19754;SDS011;10036;47.812;9.274;2023-04-25T12:49:04;1.00;;;0.90;;
19754;SDS011;10036;47.812;9.274;2023-04-25T12:51:32;2.13;;;0.80;;
19754;SDS011;10036;47.812;9.274;2023-04-25T12:53:59;2.00;;;0.90;;
19754;SDS011;10036;47.812;9.274;2023-04-25T12:56:27;0.82;;;0.82;;
19754;SDS011;10036;47.812;9.274;2023-04-25T12:58:54;1.23;;;0.73;;
19754;SDS011;10036;47.812;9.274;2023-04-25T13:01:21;0.50;;;0.50;;
19754;SDS011;10036;47.812;9.274;2023-04-25T13:03:49;0.75;;;0.75;;
19754;SDS011;10036;47.812;9.274;2023-04-25T13:06:16;0.80;;;0.80;;
19754;SDS011;10036;47.812;9.274;2023-04-25T13:08:44;0.70;;;0.70;;
19754;SDS011;10036;47.812;9.274;2023-04-25T13:11:11;0.80;;;0.80;;
19754;SDS011;10036;47.812;9.274;2023-04-25T13:13:41;0.68;;;0.68;;
19754;SDS011;10036;47.812;9.274;2023-04-25T13:16:08;0.70;;;0.70;;
19754;SDS011;10036;47.812;9.274;2023-04-25T13:18:35;0.93;;;0.90;;
19754;SDS011;10036;47.812;9.274;2023-04-25T13:21:02;1.92;;;1.75;;
19754;SDS011;10036;47.812;9.274;2023-04-25T13:23:29;1.08;;;1.02;;
19754;SDS011;10036;47.812;9.274;2023-04-25T13:25:56;0.90;;;0.90;;
19754;SDS011;10036;47.812;9.274;2023-04-25T13:28:24;0.88;;;0.88;;
19754;SDS011;10036;47.812;9.274;2023-04-25T13:30:52;0.90;;;0.90;;
19754;SDS011;10036;47.812;9.274;2023-04-25T13:33:19;0.90;;;0.90;;
19754;SDS011;10036;47.812;9.274;2023-04-25T13:35:47;0.80;;;0.80;;
19754;SDS011;10036;47.812;9.274;2023-04-25T13:38:18;1.20;;;1.10;;
19754;SDS011;10036;47.812;9.274;2023-04-25T13:40:46;1.20;;;0.88;;
19754;SDS011;10036;47.812;9.274;2023-04-25T13:43:13;1.33;;;1.00;;
19754;SDS011;10036;47.812;9.274;2023-04-25T13:45:40;0.98;;;0.98;;
19754;SDS011;10036;47.812;9.274;2023-04-25T13:48:08;0.98;;;0.98;;
19754;SDS011;10036;47.812;9.274;2023-04-25T13:50:35;1.05;;;1.05;;
19754;SDS011;10036;47.812;9.274;2023-04-25T13:53:02;0.95;;;0.95;;
19754;SDS011;10036;47.812;9.274;2023-04-25T13:55:29;1.13;;;1.13;;
19754;SDS011;10036;47.812;9.274;2023-04-25T13:57:56;1.40;;;1.00;;
19754;SDS011;10036;47.812;9.274;2023-04-25T14:00:23;1.00;;;1.00;;
19754;SDS011;10036;47.812;9.274;2023-04-25T14:02:50;1.00;;;1.00;;
19754;SDS011;10036;47.812;9.274;2023-04-25T14:05:19;0.95;;;0.95;;
19754;SDS011;10036;47.812;9.274;2023-04-25T14:07:46;1.25;;;1.15;;
19754;SDS011;10036;47.812;9.274;2023-04-25T14:10:13;1.20;;;1.10;;
19754;SDS011;10036;47.812;9.274;2023-04-25T14:12:40;1.00;;;1.00;;
19754;SDS011;10036;47.812;9.274;2023-04-25T14:15:07;1.13;;;1.10;;
19754;SDS011;10036;47.812;9.274;2023-04-25T14:17:35;0.93;;;0.90;;
19754;SDS011;10036;47.812;9.274;2023-04-25T14:20:03;1.50;;;1.10;;
19754;SDS011;10036;47.812;9.274;2023-04-25T14:22:32;1.13;;;1.02;;
19754;SDS011;10036;47.812;9.274;2023-04-25T14:24:59;1.30;;;1.08;;
19754;SDS011;10036;47.812;9.274;2023-04-25T14:27:26;0.90;;;0.90;;
19754;SDS011;10036;47.812;9.274;2023-04-25T14:29:53;1.23;;;1.10;;
19754;SDS011;10036;47.812;9.274;2023-04-25T14:32:20;1.40;;;1.30;;
19754;SDS011;10036;47.812;9.274;2023-04-25T14:34:47;1.85;;;1.75;;
19754;SDS011;10036;47.812;9.274;2023-04-25T14:37:14;1.70;;;1.60;;
19754;SDS011;10036;47.812;9.274;2023-04-25T14:39:43;1.23;;;1.10;;
19754;SDS011;10036;47.812;9.274;2023-04-25T14:42:10;1.02;;;1.02;;
19754;SDS011;10036;47.812;9.274;2023-04-25T14:44:37;1.10;;;1.10;;
19754;SDS011;10036;47.812;9.274;2023-04-25T14:47:04;1.70;;;1.55;;
19754;SDS011;10036;47.812;9.274;2023-04-25T14:49:31;2.35;;;2.03;;
19754;SDS011;10036;47.812;9.274;2023-04-25T14:51:58;1.42;;;1.30;;
19754;SDS011;10036;47.812;9.274;2023-04-25T14:54:26;1.73;;;1.50;;
19754;SDS011;10036;47.812;9.274;2023-04-25T14:56:54;1.08;;;1.08;;